createdAt,value
2023-05-23T00:00:00.432Z,49.67
2023-05-23T00:01:00.422Z,49.84
2023-05-23T00:02:00.669Z,49.84
2023-05-23T00:03:00.486Z,49.84
2023-05-23T00:04:00.518Z,49.84
2023-05-23T00:05:00.413Z,49.84
2023-05-23T00:06:00.427Z,50.17
2023-05-23T00:07:00.514Z,50.17
2023-05-23T00:08:00.437Z,50.17
2023-05-23T00:09:00.811Z,50.17
2023-05-23T00:10:00.453Z,50.17
2023-05-23T00:11:00.438Z,50.18
2023-05-23T00:12:00.681Z,50.18
2023-05-23T00:13:00.446Z,50.18
2023-05-23T00:14:00.600Z,50.18
2023-05-23T00:15:00.460Z,50.18
2023-05-23T00:16:00.441Z,50.20
2023-05-23T00:17:00.467Z,50.20
2023-05-23T00:18:00.660Z,50.20
2023-05-23T00:19:00.523Z,50.20
2023-05-23T00:20:00.438Z,50.20
2023-05-23T00:21:00.434Z,50.34
2023-05-23T00:22:00.434Z,50.34
2023-05-23T00:23:00.430Z,50.34
2023-05-23T00:24:00.441Z,50.34
2023-05-23T00:25:00.424Z,50.34
2023-05-23T00:26:00.439Z,50.61
2023-05-23T00:27:00.427Z,50.61
2023-05-23T00:28:00.428Z,50.61
2023-05-23T00:29:00.562Z,50.61
2023-05-23T00:30:00.431Z,50.61
2023-05-23T00:31:00.458Z,50.88
2023-05-23T00:32:00.439Z,50.88
2023-05-23T00:33:00.484Z,50.88
2023-05-23T00:34:00.433Z,50.88
2023-05-23T00:35:00.434Z,50.88
2023-05-23T00:36:00.426Z,51.88
2023-05-23T00:37:00.435Z,51.88
2023-05-23T00:38:00.436Z,51.88
2023-05-23T00:39:00.444Z,51.88
2023-05-23T00:40:00.559Z,51.88
2023-05-23T00:41:01.029Z,52.37
2023-05-23T00:42:03.462Z,52.37
2023-05-23T00:43:00.430Z,52.37
2023-05-23T00:44:00.419Z,52.37
2023-05-23T00:45:00.425Z,52.37
2023-05-23T00:46:00.437Z,52.53
2023-05-23T00:47:00.438Z,52.53
2023-05-23T00:48:01.672Z,52.53
2023-05-23T00:49:00.458Z,52.53
2023-05-23T00:50:00.789Z,52.53
2023-05-23T00:51:00.868Z,52.66
2023-05-23T00:52:00.575Z,52.66
2023-05-23T00:53:00.579Z,52.66
2023-05-23T00:54:00.431Z,52.66
2023-05-23T00:55:00.620Z,52.66
2023-05-23T00:56:00.964Z,53.09
2023-05-23T00:57:00.430Z,53.09
2023-05-23T00:58:00.429Z,53.09
2023-05-23T00:59:00.446Z,53.09
2023-05-23T01:00:00.650Z,53.09
2023-05-23T01:01:00.534Z,53.37
2023-05-23T01:02:00.810Z,53.37
2023-05-23T01:03:00.533Z,53.37
2023-05-23T01:04:00.494Z,53.37
2023-05-23T01:05:00.438Z,53.37
2023-05-23T01:06:00.453Z,53.61
2023-05-23T01:07:00.600Z,53.61
2023-05-23T01:08:00.418Z,53.61
2023-05-23T01:09:00.443Z,53.61
2023-05-23T01:10:00.431Z,53.61
2023-05-23T01:11:03.296Z,53.48
2023-05-23T01:12:10.205Z,53.48
2023-05-23T01:13:10.210Z,53.48
2023-05-23T01:14:04.398Z,53.48
2023-05-23T01:15:03.549Z,53.48
2023-05-23T01:16:09.371Z,53.38
2023-05-23T01:17:03.773Z,53.38
2023-05-23T01:18:06.071Z,53.38
2023-05-23T01:19:10.208Z,53.38
2023-05-23T01:20:00.422Z,53.38
2023-05-23T01:21:05.603Z,53.44
2023-05-23T01:22:05.107Z,53.44
2023-05-23T01:23:07.792Z,53.44
2023-05-23T01:24:00.417Z,53.44
2023-05-23T01:25:06.455Z,53.44
2023-05-23T01:26:10.186Z,53.49
2023-05-23T01:27:06.745Z,53.49
2023-05-23T01:28:02.008Z,53.49
2023-05-23T01:29:09.895Z,53.49
2023-05-23T01:30:01.468Z,53.49
2023-05-23T01:31:01.857Z,53.86
2023-05-23T01:32:01.150Z,53.86
2023-05-23T01:33:01.006Z,53.86
2023-05-23T01:34:01.392Z,53.86
2023-05-23T01:35:00.423Z,53.86
2023-05-23T01:36:01.018Z,54.12
2023-05-23T01:37:00.428Z,54.12
2023-05-23T01:38:00.438Z,54.12
2023-05-23T01:39:00.533Z,54.12
2023-05-23T01:40:00.441Z,54.12
2023-05-23T01:41:00.426Z,54.05
2023-05-23T01:42:00.430Z,54.05
2023-05-23T01:43:00.446Z,54.05
2023-05-23T01:44:00.525Z,54.05
2023-05-23T01:45:00.429Z,54.05
2023-05-23T01:46:00.836Z,54.08
2023-05-23T01:47:02.636Z,54.08
2023-05-23T01:48:01.422Z,54.08
2023-05-23T01:49:02.561Z,54.08
2023-05-23T01:50:01.269Z,54.08
2023-05-23T01:51:01.036Z,54.24
2023-05-23T01:52:00.653Z,54.24
2023-05-23T01:53:00.617Z,54.24
2023-05-23T01:54:00.426Z,54.24
2023-05-23T01:55:00.682Z,54.24
2023-05-23T01:56:01.017Z,54.44
2023-05-23T01:57:00.637Z,54.44
2023-05-23T01:58:01.044Z,54.44
2023-05-23T01:59:00.838Z,54.44
2023-05-23T02:00:00.466Z,54.44
2023-05-23T02:01:00.476Z,54.44
2023-05-23T02:02:00.502Z,54.44
2023-05-23T02:03:00.506Z,54.44
2023-05-23T02:04:00.573Z,54.44
2023-05-23T02:05:00.436Z,54.44
2023-05-23T02:06:00.474Z,54.72
2023-05-23T02:07:00.462Z,54.72
2023-05-23T02:08:00.431Z,54.72
2023-05-23T02:09:00.437Z,54.72
2023-05-23T02:10:00.438Z,54.72
2023-05-23T02:11:00.436Z,54.68
2023-05-23T02:12:00.438Z,54.68
2023-05-23T02:13:00.468Z,54.68
2023-05-23T02:14:00.434Z,54.68
2023-05-23T02:15:00.462Z,54.68
2023-05-23T02:16:00.430Z,54.73
2023-05-23T02:17:00.526Z,54.73
2023-05-23T02:18:00.476Z,54.73
2023-05-23T02:19:00.456Z,54.73
2023-05-23T02:20:00.432Z,54.73
2023-05-23T02:21:00.442Z,54.78
2023-05-23T02:22:00.787Z,54.78
2023-05-23T02:23:00.424Z,54.78
2023-05-23T02:24:00.443Z,54.78
2023-05-23T02:25:00.428Z,54.78
2023-05-23T02:26:00.426Z,54.83
2023-05-23T02:27:00.454Z,54.83
2023-05-23T02:28:00.426Z,54.83
2023-05-23T02:29:00.426Z,54.83
2023-05-23T02:30:00.609Z,54.83
2023-05-23T02:31:01.109Z,54.76
2023-05-23T02:32:00.430Z,54.76
2023-05-23T02:33:03.661Z,54.76
2023-05-23T02:34:00.474Z,54.76
2023-05-23T02:35:00.427Z,54.76
2023-05-23T02:36:00.456Z,55.02
2023-05-23T02:37:00.420Z,55.02
2023-05-23T02:38:00.412Z,55.02
2023-05-23T02:39:00.504Z,55.02
2023-05-23T02:40:00.452Z,55.02
2023-05-23T02:41:00.463Z,55.08
2023-05-23T02:42:00.425Z,55.08
2023-05-23T02:43:00.431Z,55.08
2023-05-23T02:44:00.424Z,55.08
2023-05-23T02:45:00.435Z,55.08
2023-05-23T02:46:00.515Z,55.17
2023-05-23T02:47:00.443Z,55.17
2023-05-23T02:48:00.454Z,55.17
2023-05-23T02:49:00.422Z,55.17
2023-05-23T02:50:00.453Z,55.17
2023-05-23T02:51:00.465Z,55.25
2023-05-23T02:52:00.445Z,55.25
2023-05-23T02:53:00.426Z,55.25
2023-05-23T02:54:00.435Z,55.25
2023-05-23T02:55:00.457Z,55.25
2023-05-23T02:56:00.447Z,55.36
2023-05-23T02:57:00.436Z,55.36
2023-05-23T02:58:00.423Z,55.36
2023-05-23T02:59:00.430Z,55.36
2023-05-23T03:00:00.692Z,55.36
2023-05-23T03:01:01.712Z,55.49
2023-05-23T03:02:00.489Z,55.49
2023-05-23T03:03:00.499Z,55.49
2023-05-23T03:04:00.687Z,55.49
2023-05-23T03:05:00.416Z,55.49
2023-05-23T03:06:01.574Z,56.08
2023-05-23T03:07:00.430Z,56.08
2023-05-23T03:08:00.525Z,56.08
2023-05-23T03:09:00.422Z,56.08
2023-05-23T03:10:00.433Z,56.08
2023-05-23T03:11:00.444Z,56.39
2023-05-23T03:12:00.437Z,56.39
2023-05-23T03:13:00.468Z,56.39
2023-05-23T03:14:00.434Z,56.39
2023-05-23T03:15:00.465Z,56.39
2023-05-23T03:16:00.529Z,56.45
2023-05-23T03:17:00.501Z,56.45
2023-05-23T03:18:00.466Z,56.45
2023-05-23T03:19:00.453Z,56.45
2023-05-23T03:20:00.431Z,56.45
2023-05-23T03:21:00.429Z,56.47
2023-05-23T03:22:00.445Z,56.47
2023-05-23T03:23:00.444Z,56.47
2023-05-23T03:24:00.440Z,56.47
2023-05-23T03:25:00.420Z,56.47
2023-05-23T03:26:00.432Z,56.53
2023-05-23T03:27:00.428Z,56.53
2023-05-23T03:28:00.417Z,56.53
2023-05-23T03:29:00.448Z,56.53
2023-05-23T03:30:00.428Z,56.53
2023-05-23T03:31:00.452Z,56.58
2023-05-23T03:32:00.470Z,56.58
2023-05-23T03:33:00.465Z,56.58
2023-05-23T03:34:00.428Z,56.58
2023-05-23T03:35:00.451Z,56.58
2023-05-23T03:36:00.436Z,56.97
2023-05-23T03:37:00.423Z,56.97
2023-05-23T03:38:00.423Z,56.97
2023-05-23T03:39:00.515Z,56.97
2023-05-23T03:40:00.444Z,56.97
2023-05-23T03:41:00.438Z,57.16
2023-05-23T03:42:00.420Z,57.16
2023-05-23T03:43:01.084Z,57.16
2023-05-23T03:44:00.596Z,57.16
2023-05-23T03:45:00.419Z,57.16
2023-05-23T03:46:00.448Z,57.27
2023-05-23T03:47:00.434Z,57.27
2023-05-23T03:48:00.532Z,57.27
2023-05-23T03:49:00.435Z,57.27
2023-05-23T03:50:00.502Z,57.27
2023-05-23T03:51:00.439Z,57.31
2023-05-23T03:52:00.423Z,57.31
2023-05-23T03:53:00.420Z,57.31
2023-05-23T03:54:00.465Z,57.31
2023-05-23T03:55:00.455Z,57.31
2023-05-23T03:56:00.425Z,57.65
2023-05-23T03:57:00.423Z,57.65
2023-05-23T03:58:00.441Z,57.65
2023-05-23T03:59:00.424Z,57.65
2023-05-23T04:00:00.429Z,57.65
2023-05-23T04:01:01.912Z,58.09
2023-05-23T04:02:00.470Z,58.09
2023-05-23T04:03:00.547Z,58.09
2023-05-23T04:04:00.636Z,58.09
2023-05-23T04:05:00.421Z,58.09
2023-05-23T04:06:00.421Z,58.54
2023-05-23T04:07:00.425Z,58.54
2023-05-23T04:08:00.436Z,58.54
2023-05-23T04:09:00.496Z,58.54
2023-05-23T04:10:00.445Z,58.54
2023-05-23T04:11:00.482Z,58.43
2023-05-23T04:12:00.409Z,58.43
2023-05-23T04:13:00.420Z,58.43
2023-05-23T04:14:00.428Z,58.43
2023-05-23T04:15:00.415Z,58.43
2023-05-23T04:16:00.446Z,58.14
2023-05-23T04:17:00.545Z,58.14
2023-05-23T04:18:00.454Z,58.14
2023-05-23T04:19:01.593Z,58.14
2023-05-23T04:20:00.416Z,58.14
2023-05-23T04:21:00.422Z,58.32
2023-05-23T04:22:00.421Z,58.32
2023-05-23T04:23:00.427Z,58.32
2023-05-23T04:24:00.646Z,58.32
2023-05-23T04:25:00.454Z,58.32
2023-05-23T04:26:00.586Z,58.60
2023-05-23T04:27:00.424Z,58.60
2023-05-23T04:28:00.531Z,58.60
2023-05-23T04:29:00.433Z,58.60
2023-05-23T04:30:00.467Z,58.60
2023-05-23T04:31:00.461Z,58.78
2023-05-23T04:32:01.126Z,58.78
2023-05-23T04:33:00.485Z,58.78
2023-05-23T04:34:00.428Z,58.78
2023-05-23T04:35:00.432Z,58.78
2023-05-23T04:36:00.423Z,59.22
2023-05-23T04:37:00.567Z,59.22
2023-05-23T04:38:00.435Z,59.22
2023-05-23T04:39:00.440Z,59.22
2023-05-23T04:40:00.432Z,59.22
2023-05-23T04:41:00.454Z,59.50
2023-05-23T04:42:00.425Z,59.50
2023-05-23T04:43:00.430Z,59.50
2023-05-23T04:44:00.433Z,59.50
2023-05-23T04:45:00.440Z,59.50
2023-05-23T04:46:00.443Z,59.94
2023-05-23T04:47:00.513Z,59.94
2023-05-23T04:48:00.477Z,59.94
2023-05-23T04:49:00.436Z,59.94
2023-05-23T04:50:00.432Z,59.94
2023-05-23T04:51:00.440Z,59.93
2023-05-23T04:52:00.437Z,59.93
2023-05-23T04:53:00.466Z,59.93
2023-05-23T04:54:00.679Z,59.93
2023-05-23T04:55:00.454Z,59.93
2023-05-23T04:56:00.428Z,59.85
2023-05-23T04:57:00.468Z,59.85
2023-05-23T04:58:00.444Z,59.85
2023-05-23T04:59:00.459Z,59.85
2023-05-23T05:00:00.552Z,59.85
2023-05-23T05:01:00.463Z,59.75
2023-05-23T05:02:00.530Z,59.75
2023-05-23T05:03:00.516Z,59.75
2023-05-23T05:04:00.645Z,59.75
2023-05-23T05:05:00.588Z,59.75
2023-05-23T05:06:00.416Z,60.05
2023-05-23T05:07:00.437Z,60.05
2023-05-23T05:08:00.567Z,60.05
2023-05-23T05:09:00.420Z,60.05
2023-05-23T05:10:01.338Z,60.05
2023-05-23T05:11:00.453Z,59.93
2023-05-23T05:12:00.436Z,59.93
2023-05-23T05:13:00.425Z,59.93
2023-05-23T05:14:00.455Z,59.93
2023-05-23T05:15:01.569Z,59.93
2023-05-23T05:16:00.426Z,60.02
2023-05-23T05:17:00.583Z,60.02
2023-05-23T05:18:00.498Z,60.02
2023-05-23T05:19:00.486Z,60.02
2023-05-23T05:20:00.441Z,60.02
2023-05-23T05:21:00.441Z,59.95
2023-05-23T05:22:00.438Z,59.95
2023-05-23T05:23:00.427Z,59.95
2023-05-23T05:24:00.438Z,59.95
2023-05-23T05:25:00.429Z,59.95
2023-05-23T05:26:00.501Z,60.04
2023-05-23T05:27:02.267Z,60.04
2023-05-23T05:28:01.829Z,60.04
2023-05-23T05:29:00.428Z,60.04
2023-05-23T05:30:00.446Z,60.04
2023-05-23T05:31:00.450Z,59.77
2023-05-23T05:32:00.418Z,59.77
2023-05-23T05:33:00.851Z,59.77
2023-05-23T05:34:00.448Z,59.77
2023-05-23T05:35:00.635Z,59.77
2023-05-23T05:36:05.288Z,60.63
2023-05-23T05:37:00.447Z,60.63
2023-05-23T05:38:00.771Z,60.63
2023-05-23T05:39:00.424Z,60.63
2023-05-23T05:40:00.460Z,60.63
2023-05-23T05:41:00.451Z,60.57
2023-05-23T05:42:00.417Z,60.57
2023-05-23T05:43:00.449Z,60.57
2023-05-23T05:44:00.448Z,60.57
2023-05-23T05:45:00.431Z,60.57
2023-05-23T05:46:00.463Z,60.32
2023-05-23T05:47:00.431Z,60.32
2023-05-23T05:48:00.494Z,60.32
2023-05-23T05:49:00.437Z,60.32
2023-05-23T05:50:00.453Z,60.32
2023-05-23T05:51:00.429Z,59.32
2023-05-23T05:52:00.445Z,59.32
2023-05-23T05:53:00.464Z,59.32
2023-05-23T05:54:00.438Z,59.32
2023-05-23T05:55:00.521Z,59.32
2023-05-23T05:56:01.081Z,58.13
2023-05-23T05:57:00.425Z,58.13
2023-05-23T05:58:00.429Z,58.13
2023-05-23T05:59:00.445Z,58.13
2023-05-23T06:00:00.429Z,58.13
2023-05-23T06:01:00.428Z,57.50
2023-05-23T06:02:00.432Z,57.50
2023-05-23T06:03:00.582Z,57.50
2023-05-23T06:04:00.713Z,57.50
2023-05-23T06:05:00.605Z,57.50
2023-05-23T06:06:00.475Z,57.50
2023-05-23T06:07:00.420Z,57.50
2023-05-23T06:08:00.444Z,57.50
2023-05-23T06:09:00.434Z,57.50
2023-05-23T06:10:00.624Z,57.50
2023-05-23T06:11:00.446Z,58.31
2023-05-23T06:12:00.437Z,58.31
2023-05-23T06:13:00.425Z,58.31
2023-05-23T06:14:00.564Z,58.31
2023-05-23T06:15:00.449Z,58.31
2023-05-23T06:16:00.502Z,59.15
2023-05-23T06:17:00.462Z,59.15
2023-05-23T06:18:00.511Z,59.15
2023-05-23T06:19:00.569Z,59.15
2023-05-23T06:20:00.442Z,59.15
2023-05-23T06:21:00.501Z,59.95
2023-05-23T06:22:00.423Z,59.95
2023-05-23T06:23:00.441Z,59.95
2023-05-23T06:24:00.434Z,59.95
2023-05-23T06:25:00.465Z,59.95
2023-05-23T06:26:00.430Z,60.27
2023-05-23T06:27:00.429Z,60.27
2023-05-23T06:28:00.521Z,60.27
2023-05-23T06:29:00.441Z,60.27
2023-05-23T06:30:00.547Z,60.27
2023-05-23T06:31:00.420Z,59.60
2023-05-23T06:32:00.467Z,59.60
2023-05-23T06:33:00.467Z,59.60
2023-05-23T06:34:00.448Z,59.60
2023-05-23T06:35:00.431Z,59.60
2023-05-23T06:36:00.604Z,58.87
2023-05-23T06:37:00.440Z,58.87
2023-05-23T06:38:00.431Z,58.87
2023-05-23T06:39:00.550Z,58.87
2023-05-23T06:40:00.736Z,58.87
2023-05-23T06:41:00.480Z,59.01
2023-05-23T06:42:00.430Z,59.01
2023-05-23T06:43:00.426Z,59.01
2023-05-23T06:44:00.441Z,59.01
2023-05-23T06:45:00.430Z,59.01
2023-05-23T06:46:00.479Z,59.59
2023-05-23T06:47:00.440Z,59.59
2023-05-23T06:48:00.468Z,59.59
2023-05-23T06:49:13.855Z,59.59
2023-05-23T06:50:00.913Z,59.59
2023-05-23T06:51:00.525Z,59.21
2023-05-23T06:52:00.448Z,59.21
2023-05-23T06:53:00.433Z,59.21
2023-05-23T06:54:00.440Z,59.21
2023-05-23T06:55:00.472Z,59.21
2023-05-23T06:56:00.476Z,59.13
2023-05-23T06:57:00.443Z,59.13
2023-05-23T06:58:00.462Z,59.13
2023-05-23T06:59:00.476Z,59.13
2023-05-23T07:00:00.470Z,59.13
2023-05-23T07:01:00.493Z,58.69
2023-05-23T07:02:00.437Z,58.69
2023-05-23T07:03:00.472Z,58.69
2023-05-23T07:04:00.440Z,58.69
2023-05-23T07:05:00.481Z,58.69
2023-05-23T07:06:00.495Z,59.01
2023-05-23T07:07:00.442Z,59.01
2023-05-23T07:08:00.431Z,59.01
2023-05-23T07:09:00.438Z,59.01
2023-05-23T07:10:00.520Z,59.01
2023-05-23T07:11:00.457Z,58.83
2023-05-23T07:12:00.439Z,58.83
2023-05-23T07:13:00.445Z,58.83
2023-05-23T07:14:00.432Z,58.83
2023-05-23T07:15:00.413Z,58.83
2023-05-23T07:16:00.455Z,58.02
2023-05-23T07:17:00.533Z,58.02
2023-05-23T07:18:00.447Z,58.02
2023-05-23T07:19:00.760Z,58.02
2023-05-23T07:20:00.463Z,58.02
2023-05-23T07:21:00.440Z,58.00
2023-05-23T07:22:00.452Z,58.00
2023-05-23T07:23:00.467Z,58.00
2023-05-23T07:24:00.443Z,58.00
2023-05-23T07:25:00.447Z,58.00
2023-05-23T07:26:02.890Z,57.64
2023-05-23T07:27:00.433Z,57.64
2023-05-23T07:28:00.437Z,57.64
2023-05-23T07:29:00.427Z,57.64
2023-05-23T07:30:00.449Z,57.64
2023-05-23T07:31:00.451Z,57.25
2023-05-23T07:32:00.456Z,57.25
2023-05-23T07:33:00.485Z,57.25
2023-05-23T07:34:00.454Z,57.25
2023-05-23T07:35:00.446Z,57.25
2023-05-23T07:36:00.437Z,56.55
2023-05-23T07:37:00.422Z,56.55
2023-05-23T07:38:00.431Z,56.55
2023-05-23T07:39:00.518Z,56.55
2023-05-23T07:40:00.438Z,56.55
2023-05-23T07:41:10.870Z,56.64
2023-05-23T07:42:00.446Z,56.64
2023-05-23T07:43:00.458Z,56.64
2023-05-23T07:44:00.429Z,56.64
2023-05-23T07:45:00.453Z,56.64
2023-05-23T07:46:00.479Z,56.78
2023-05-23T07:47:00.654Z,56.78
2023-05-23T07:48:00.482Z,56.78
2023-05-23T07:49:00.454Z,56.78
2023-05-23T07:50:00.420Z,56.78
2023-05-23T07:51:00.445Z,57.04
2023-05-23T07:52:00.432Z,57.04
2023-05-23T07:53:00.423Z,57.04
2023-05-23T07:54:00.430Z,57.04
2023-05-23T07:55:00.448Z,57.04
2023-05-23T07:56:00.440Z,55.73
2023-05-23T07:57:00.443Z,55.73
2023-05-23T07:58:00.465Z,55.73
2023-05-23T07:59:00.520Z,55.73
2023-05-23T08:00:00.536Z,55.73
2023-05-23T08:01:00.432Z,56.25
2023-05-23T08:02:00.588Z,56.25
2023-05-23T08:03:00.472Z,56.25
2023-05-23T08:04:01.039Z,56.25
2023-05-23T08:05:00.457Z,56.25
2023-05-23T08:06:00.507Z,55.31
2023-05-23T08:07:05.633Z,55.31
2023-05-23T08:08:00.466Z,55.31
2023-05-23T08:09:00.687Z,55.31
2023-05-23T08:10:00.467Z,55.31
2023-05-23T08:11:00.521Z,55.18
2023-05-23T08:12:00.890Z,55.18
2023-05-23T08:13:00.466Z,55.18
2023-05-23T08:14:01.449Z,55.18
2023-05-23T08:15:00.456Z,55.18
2023-05-23T08:16:00.495Z,54.28
2023-05-23T08:17:00.578Z,54.28
2023-05-23T08:18:00.500Z,54.28
2023-05-23T08:19:00.568Z,54.28
2023-05-23T08:20:00.463Z,54.28
2023-05-23T08:21:00.432Z,53.86
2023-05-23T08:22:00.435Z,53.86
2023-05-23T08:23:00.992Z,53.86
2023-05-23T08:24:00.429Z,53.86
2023-05-23T08:25:00.423Z,53.86
2023-05-23T08:26:00.477Z,53.60
2023-05-23T08:27:00.441Z,53.60
2023-05-23T08:28:00.455Z,53.60
2023-05-23T08:29:00.713Z,53.60
2023-05-23T08:30:00.512Z,53.60
2023-05-23T08:31:00.441Z,52.82
2023-05-23T08:32:00.459Z,52.82
2023-05-23T08:33:00.507Z,52.82
2023-05-23T08:34:00.746Z,52.82
2023-05-23T08:35:00.434Z,52.82
2023-05-23T08:36:00.423Z,51.58
2023-05-23T08:37:00.423Z,51.58
2023-05-23T08:38:00.854Z,51.58
2023-05-23T08:39:00.451Z,51.58
2023-05-23T08:40:00.448Z,51.58
2023-05-23T08:41:00.978Z,51.92
2023-05-23T08:42:00.434Z,51.92
2023-05-23T08:43:00.616Z,51.92
2023-05-23T08:44:00.427Z,51.92
2023-05-23T08:45:00.658Z,51.92
2023-05-23T08:46:02.690Z,51.07
2023-05-23T08:47:02.306Z,51.07
2023-05-23T08:48:00.495Z,51.07
2023-05-23T08:49:00.616Z,51.07
2023-05-23T08:50:01.153Z,51.07
2023-05-23T08:51:02.211Z,50.65
2023-05-23T08:52:01.759Z,50.65
2023-05-23T08:53:01.352Z,50.65
2023-05-23T08:54:01.008Z,50.65
2023-05-23T08:55:00.715Z,50.65
2023-05-23T08:56:01.325Z,49.50
2023-05-23T08:57:00.513Z,49.50
2023-05-23T08:58:00.489Z,49.50
2023-05-23T08:59:01.069Z,49.50
2023-05-23T09:00:00.944Z,49.50
2023-05-23T09:01:00.429Z,49.64
2023-05-23T09:02:02.492Z,49.64
2023-05-23T09:03:00.535Z,49.64
2023-05-23T09:04:00.466Z,49.64
2023-05-23T09:05:00.581Z,49.64
2023-05-23T09:06:00.825Z,48.56
2023-05-23T09:07:01.641Z,48.56
2023-05-23T09:08:00.437Z,48.56
2023-05-23T09:09:00.440Z,48.56
2023-05-23T09:10:00.449Z,48.56
2023-05-23T09:11:01.203Z,47.83
2023-05-23T09:12:00.444Z,47.83
2023-05-23T09:13:00.442Z,47.83
2023-05-23T09:14:00.465Z,47.83
2023-05-23T09:15:00.572Z,47.83
2023-05-23T09:16:04.075Z,47.75
2023-05-23T09:17:02.500Z,47.75
2023-05-23T09:18:00.611Z,47.75
2023-05-23T09:19:09.146Z,47.75
2023-05-23T09:20:00.454Z,47.75
2023-05-23T09:21:00.675Z,45.95
2023-05-23T09:22:01.429Z,45.95
2023-05-23T09:23:02.927Z,45.95
2023-05-23T09:24:00.858Z,45.95
2023-05-23T09:25:00.752Z,45.95
2023-05-23T09:26:02.293Z,45.77
2023-05-23T09:27:00.520Z,45.77
2023-05-23T09:28:01.088Z,45.77
2023-05-23T09:29:00.524Z,45.77
2023-05-23T09:30:08.495Z,45.77
2023-05-23T09:31:00.828Z,44.04
2023-05-23T09:32:10.186Z,44.04
2023-05-23T09:33:03.857Z,44.04
2023-05-23T09:34:00.436Z,44.04
2023-05-23T09:35:01.138Z,44.04
2023-05-23T09:36:00.447Z,44.07
2023-05-23T09:37:00.422Z,44.07
2023-05-23T09:38:00.442Z,44.07
2023-05-23T09:39:03.285Z,44.07
2023-05-23T09:40:01.296Z,44.07
2023-05-23T09:41:00.453Z,44.15
2023-05-23T09:42:00.454Z,44.15
2023-05-23T09:43:02.457Z,44.15
2023-05-23T09:44:04.700Z,44.15
2023-05-23T09:45:03.209Z,44.15
2023-05-23T09:46:05.988Z,44.20
2023-05-23T09:47:05.403Z,44.20
2023-05-23T09:48:00.453Z,44.20
2023-05-23T09:49:00.463Z,44.20
2023-05-23T09:50:00.423Z,44.20
2023-05-23T09:51:04.328Z,43.84
2023-05-23T09:52:00.547Z,43.84
2023-05-23T09:53:00.467Z,43.84
2023-05-23T09:54:00.435Z,43.84
2023-05-23T09:55:00.530Z,43.84
2023-05-23T09:56:01.531Z,43.98
2023-05-23T09:57:01.822Z,43.98
2023-05-23T09:58:00.994Z,43.98
2023-05-23T09:59:01.449Z,43.98
2023-05-23T10:00:01.746Z,43.98
2023-05-23T10:01:01.811Z,43.12
2023-05-23T10:02:01.635Z,43.12
2023-05-23T10:03:00.470Z,43.12
2023-05-23T10:04:02.549Z,43.12
2023-05-23T10:05:00.516Z,43.12
2023-05-23T10:06:03.932Z,43.21
2023-05-23T10:07:03.843Z,43.21
2023-05-23T10:08:01.043Z,43.21
2023-05-23T10:09:03.021Z,43.21
2023-05-23T10:10:02.280Z,43.21
2023-05-23T10:11:03.578Z,43.91
2023-05-23T10:12:10.189Z,43.91
2023-05-23T10:13:01.725Z,43.91
2023-05-23T10:14:02.184Z,43.91
2023-05-23T10:15:01.945Z,43.91
2023-05-23T10:16:08.718Z,44.08
2023-05-23T10:17:05.468Z,44.08
2023-05-23T10:18:04.745Z,44.08
2023-05-23T10:19:05.316Z,44.08
2023-05-23T10:20:02.724Z,44.08
2023-05-23T10:21:05.909Z,44.73
2023-05-23T10:22:02.558Z,44.73
2023-05-23T10:23:01.360Z,44.73
2023-05-23T10:24:02.208Z,44.73
2023-05-23T10:25:00.635Z,44.73
2023-05-23T10:26:00.969Z,44.48
2023-05-23T10:27:00.442Z,44.48
2023-05-23T10:28:03.955Z,44.48
2023-05-23T10:29:00.438Z,44.48
2023-05-23T10:30:00.514Z,44.48
2023-05-23T10:31:00.537Z,43.70
2023-05-23T10:32:00.844Z,43.70
2023-05-23T10:33:00.971Z,43.70
2023-05-23T10:34:07.555Z,43.70
2023-05-23T10:35:00.483Z,43.70
2023-05-23T10:36:10.268Z,44.71
2023-05-23T10:37:02.503Z,44.71
2023-05-23T10:38:06.618Z,44.71
2023-05-23T10:39:04.818Z,44.71
2023-05-23T10:40:04.763Z,44.71
2023-05-23T10:41:09.692Z,44.14
2023-05-23T10:42:03.475Z,44.14
2023-05-23T10:43:06.701Z,44.14
2023-05-23T10:44:05.934Z,44.14
2023-05-23T10:45:10.194Z,44.14
2023-05-23T10:46:00.503Z,43.54
2023-05-23T10:47:02.533Z,43.54
2023-05-23T10:48:00.531Z,43.54
2023-05-23T10:49:00.448Z,43.54
2023-05-23T10:50:00.449Z,43.54
2023-05-23T10:51:01.605Z,42.95
2023-05-23T10:52:00.570Z,42.95
2023-05-23T10:53:01.359Z,42.95
2023-05-23T10:54:00.441Z,42.95
2023-05-23T10:55:00.429Z,42.95
2023-05-23T10:56:00.644Z,42.46
2023-05-23T10:57:01.978Z,42.46
2023-05-23T10:58:10.192Z,42.46
2023-05-23T10:59:00.561Z,42.46
2023-05-23T11:00:00.526Z,42.46
2023-05-23T11:01:01.689Z,43.37
2023-05-23T11:02:01.407Z,43.37
2023-05-23T11:03:04.233Z,43.37
2023-05-23T11:04:04.137Z,43.37
2023-05-23T11:05:10.188Z,43.37
2023-05-23T11:06:01.122Z,43.61
2023-05-23T11:07:00.444Z,43.61
2023-05-23T11:08:05.872Z,43.61
2023-05-23T11:09:04.254Z,43.61
2023-05-23T11:10:04.299Z,43.61
2023-05-23T11:11:01.226Z,42.81
2023-05-23T11:12:01.326Z,42.81
2023-05-23T11:13:07.539Z,42.81
2023-05-23T11:14:00.753Z,42.81
2023-05-23T11:15:00.525Z,42.81
2023-05-23T11:16:10.216Z,42.93
2023-05-23T11:17:10.186Z,42.93
2023-05-23T11:18:00.506Z,42.93
2023-05-23T11:19:10.310Z,42.93
2023-05-23T11:20:02.802Z,42.93
2023-05-23T11:21:00.604Z,42.21
2023-05-23T11:22:01.094Z,42.21
2023-05-23T11:23:01.424Z,42.21
2023-05-23T11:24:00.432Z,42.21
2023-05-23T11:25:05.122Z,42.21
2023-05-23T11:26:00.425Z,41.47
2023-05-23T11:27:00.478Z,41.47
2023-05-23T11:28:02.945Z,41.47
2023-05-23T11:29:00.627Z,41.47
2023-05-23T11:30:00.437Z,41.47
2023-05-23T11:31:00.533Z,41.91
2023-05-23T11:32:12.827Z,41.91
2023-05-23T11:33:05.137Z,41.91
2023-05-23T11:34:00.484Z,41.91
2023-05-23T11:35:01.264Z,41.91
2023-05-23T11:36:00.555Z,41.23
2023-05-23T11:37:00.565Z,41.23
2023-05-23T11:38:01.312Z,41.23
2023-05-23T11:39:01.749Z,41.23
2023-05-23T11:40:10.196Z,41.23
2023-05-23T11:41:00.428Z,41.10
2023-05-23T11:42:01.292Z,41.10
2023-05-23T11:43:01.759Z,41.10
2023-05-23T11:44:00.428Z,41.10
2023-05-23T11:45:00.436Z,41.10
2023-05-23T11:46:06.912Z,41.36
2023-05-23T11:47:02.302Z,41.36
2023-05-23T11:48:04.530Z,41.36
2023-05-23T11:49:00.441Z,41.36
2023-05-23T11:50:00.449Z,41.36
2023-05-23T11:51:00.859Z,40.75
2023-05-23T11:52:01.025Z,40.75
2023-05-23T11:53:00.451Z,40.75
2023-05-23T11:54:00.444Z,40.75
2023-05-23T11:55:03.426Z,40.75
2023-05-23T11:56:01.180Z,40.95
2023-05-23T11:57:00.851Z,40.95
2023-05-23T11:58:00.461Z,40.95
2023-05-23T11:59:00.824Z,40.95
2023-05-23T12:00:00.450Z,40.95
2023-05-23T12:01:00.449Z,41.28
2023-05-23T12:02:01.496Z,41.28
2023-05-23T12:03:05.577Z,41.28
2023-05-23T12:04:08.156Z,41.28
2023-05-23T12:05:05.598Z,41.28
2023-05-23T12:06:00.556Z,40.63
2023-05-23T12:07:03.363Z,40.63
2023-05-23T12:08:00.443Z,40.63
2023-05-23T12:09:00.427Z,40.63
2023-05-23T12:10:00.565Z,40.63
2023-05-23T12:11:00.552Z,41.59
2023-05-23T12:12:00.433Z,41.59
2023-05-23T12:13:00.466Z,41.59
2023-05-23T12:14:00.432Z,41.59
2023-05-23T12:15:00.445Z,41.59
2023-05-23T12:16:00.833Z,42.28
2023-05-23T12:17:00.458Z,42.28
2023-05-23T12:18:00.476Z,42.28
2023-05-23T12:19:00.926Z,42.28
2023-05-23T12:20:00.527Z,42.28
2023-05-23T12:21:01.929Z,41.70
2023-05-23T12:22:04.675Z,41.70
2023-05-23T12:23:03.288Z,41.70
2023-05-23T12:24:09.897Z,41.70
2023-05-23T12:25:01.004Z,41.70
2023-05-23T12:26:02.739Z,41.48
2023-05-23T12:27:01.153Z,41.48
2023-05-23T12:28:00.599Z,41.48
2023-05-23T12:29:01.222Z,41.48
2023-05-23T12:30:08.724Z,41.48
2023-05-23T12:31:07.361Z,40.63
2023-05-23T12:32:01.365Z,40.63
2023-05-23T12:33:06.985Z,40.63
2023-05-23T12:34:00.544Z,40.63
2023-05-23T12:35:00.421Z,40.63
2023-05-23T12:36:00.562Z,41.81
2023-05-23T12:37:17.482Z,41.81
2023-05-23T12:38:00.440Z,41.81
2023-05-23T12:39:02.696Z,41.81
2023-05-23T12:40:10.288Z,41.81
2023-05-23T12:41:06.621Z,40.79
2023-05-23T12:42:08.129Z,40.79
2023-05-23T12:43:00.443Z,40.79
2023-05-23T12:44:01.561Z,40.79
2023-05-23T12:45:00.469Z,40.79
2023-05-23T12:46:00.456Z,40.40
2023-05-23T12:47:00.600Z,40.40
2023-05-23T12:48:00.494Z,40.40
2023-05-23T12:49:00.437Z,40.40
2023-05-23T12:50:00.596Z,40.40
2023-05-23T12:51:00.453Z,40.39
2023-05-23T12:52:00.456Z,40.39